Cheatham Observed Data For Previous 48 Hours

Caption
Day and Hour Reservoir Elevation (behind dam)* Tailwater Elevation (below dam)* Average Hourly Discharge*
1/17/2018 1 AM CST 385.27 358.67 13,600
1/17/2018 2 AM CST 385.37 358.57 13,400
1/17/2018 3 AM CST 385.51 358.51 13,400
1/17/2018 4 AM CST 385.55 358.45 13,400
1/17/2018 5 AM CST 385.58 358.28 13,200
1/17/2018 6 AM CST 385.29 359.57 20,400
1/17/2018 7 AM CST 385.18 359.94 20,400
1/17/2018 8 AM CST 385.13 360.07 20,400
1/17/2018 9 AM CST 385.08 360.21 20,400
1/17/2018 10 AM CST 385.03 360.28 20,400
1/17/2018 11 AM CST 385.27 359.22 13,400
1/17/2018 12 PM CST 385.50 358.47 13,200
1/17/2018 1 PM CST 385.67 358.25 13,200
1/17/2018 2 PM CST 385.71 358.14 13,200
1/17/2018 3 PM CST 385.95 358.02 13,000
1/17/2018 4 PM CST 386.06 357.95 13,000
1/17/2018 5 PM CST 386.18 357.86 13,000
1/17/2018 6 PM CST 386.28 357.76 13,000
1/17/2018 7 PM CST 386.31 357.71 13,000
1/17/2018 8 PM CST 386.36 357.67 13,000
1/17/2018 9 PM CST 386.43 357.67 12,800
1/17/2018 10 PM CST 386.50 357.66 12,800
1/17/2018 11 PM CST 386.42 358.93 16,500
1/18/2018 12 AM CST 386.44 359.23 19,800
1/18/2018 1 AM CST 386.42 359.40 19,800
1/18/2018 2 AM CST 386.40 359.57 19,800
1/18/2018 3 AM CST 386.36 359.62 20,100
1/18/2018 4 AM CST 386.21 359.73 20,100
1/18/2018 5 AM CST 386.06 359.81 20,100
1/18/2018 6 AM CST 385.96 359.85 20,100
1/18/2018 7 AM CST 385.83 359.93 20,100
1/18/2018 8 AM CST 385.79 359.94 20,100
1/18/2018 9 AM CST 385.74 359.99 20,100
1/18/2018 10 AM CST 385.70 360.04 20,400
1/18/2018 11 AM CST 385.96 359.51 13,400
1/18/2018 12 PM CST 385.73 359.75 20,100
1/18/2018 1 PM CST 385.86 360.04 20,100
1/18/2018 2 PM CST 385.70 360.15 20,400
1/18/2018 3 PM CST 385.70 360.14 20,400
1/18/2018 4 PM CST 385.72 360.18 20,400
1/18/2018 5 PM CST 385.74 360.19 20,400
1/18/2018 6 PM CST 385.70 360.24 20,400
1/18/2018 7 PM CST 385.61 360.20 20,400
1/18/2018 8 PM CST 385.53 360.18 20,400
1/18/2018 9 PM CST 385.48 360.17 20,400
1/18/2018 10 PM CST 385.45 360.18 20,400

Elevations are in feet above sea level. Discharges are in cubic feet per second and are reported at the end of the hour.